Time;durP1;ratioP1;P1;durP2;ratioP2;P2;SDS_P1;SDS_P2;PMS_P1;PMS_P2;Temp;Humidity;BMP_temperature;BMP_pressure;BME280_temperature;BME280_humidity;BME280_pressure;Samples;Min_cycle;Max_cycle;Signal;HPM_P1;HPM_P2
2023/10/29 00:01:51;;;;;;;;;;;18.10;84.00;;;;;;5038967;27;89451;-47
2023/10/29 00:04:16;;;;;;;;;;;18.10;83.90;;;;;;5044317;27;89503;-47
2023/10/29 00:06:42;;;;;;;;;;;18.10;83.90;;;;;;5040615;27;90559;-47
2023/10/29 00:09:08;;;;;;;;;;;18.10;84.00;;;;;;5044232;27;88776;-47
2023/10/29 00:11:33;;;;;;;;;;;18.10;83.70;;;;;;5044919;27;89246;-46
2023/10/29 00:13:59;;;;;;;;;;;18.10;83.70;;;;;;5043408;27;89542;-46
2023/10/29 00:16:25;;;;;;;;;;;18.10;83.70;;;;;;5041496;27;90183;-46
2023/10/29 00:18:50;;;;;;;;;;;18.10;83.70;;;;;;5041424;27;88655;-47
2023/10/29 00:21:16;;;;;;;;;;;18.10;83.70;;;;;;5041632;27;88774;-46
2023/10/29 00:23:41;;;;;;;;;;;18.10;83.70;;;;;;5038292;27;89611;-47
2023/10/29 00:26:07;;;;;;;;;;;18.10;83.70;;;;;;5040971;27;89143;-46
2023/10/29 00:28:32;;;;;;;;;;;18.10;83.60;;;;;;5041595;27;88995;-46
2023/10/29 00:30:58;;;;;;;;;;;18.10;83.70;;;;;;5039974;27;89966;-46
2023/10/29 00:33:24;;;;;;;;;;;18.10;83.70;;;;;;5044289;27;89147;-47
2023/10/29 00:35:49;;;;;;;;;;;18.10;83.60;;;;;;5037800;27;88770;-46
2023/10/29 00:38:15;;;;;;;;;;;18.00;83.60;;;;;;5042064;27;89646;-46
2023/10/29 00:40:40;;;;;;;;;;;18.10;83.60;;;;;;5041194;27;89877;-46
2023/10/29 00:43:06;;;;;;;;;;;18.00;83.60;;;;;;5040360;27;90196;-47
2023/10/29 00:45:32;;;;;;;;;;;18.00;83.50;;;;;;5037316;27;89179;-46
2023/10/29 00:47:58;;;;;;;;;;;18.10;83.50;;;;;;5027500;27;89504;-46
2023/10/29 00:50:24;;;;;;;;;;;18.00;83.40;;;;;;5026551;27;90106;-46
2023/10/29 00:52:49;;;;;;;;;;;18.00;83.00;;;;;;5035160;27;89901;-46
2023/10/29 00:55:15;;;;;;;;;;;17.90;82.80;;;;;;5030632;27;89775;-46
2023/10/29 00:57:41;;;;;;;;;;;17.90;83.40;;;;;;5033728;27;88747;-46
2023/10/29 01:00:06;;;;;;;;;;;17.90;84.10;;;;;;5034042;27;90398;-47
2023/10/29 01:02:35;;;;;;;;;;;17.80;84.20;;;;;;5033770;27;88810;-47
2023/10/29 01:05:01;;;;;;;;;;;17.80;84.40;;;;;;5038410;27;90798;-46
2023/10/29 01:07:27;;;;;;;;;;;17.80;84.50;;;;;;5037106;27;88803;-46
2023/10/29 01:09:52;;;;;;;;;;;17.80;84.70;;;;;;5018425;27;89545;-46
2023/10/29 01:12:19;;;;;;;;;;;17.80;84.60;;;;;;5034809;27;89663;-46
2023/10/29 01:14:45;;;;;;;;;;;17.80;84.70;;;;;;5037519;27;89161;-47
2023/10/29 01:17:11;;;;;;;;;;;17.80;84.70;;;;;;5041848;27;89338;-46
2023/10/29 01:19:36;;;;;;;;;;;17.80;84.70;;;;;;5042778;27;90124;-47
2023/10/29 01:22:02;;;;;;;;;;;17.80;84.80;;;;;;5045305;27;88359;-47
2023/10/29 01:24:28;;;;;;;;;;;17.80;84.80;;;;;;5042837;27;89147;-46
2023/10/29 01:26:54;;;;;;;;;;;17.70;84.80;;;;;;5037625;27;89240;-46
2023/10/29 01:29:19;;;;;;;;;;;17.70;84.80;;;;;;5043346;27;93299;-46
2023/10/29 01:31:51;;;;;;;;;;;17.70;84.70;;;;;;5038275;27;89589;-46
2023/10/29 01:34:17;;;;;;;;;;;17.70;84.70;;;;;;5044402;27;89357;-46
2023/10/29 01:36:42;;;;;;;;;;;17.70;84.60;;;;;;5037714;27;89301;-46
2023/10/29 01:39:08;;;;;;;;;;;17.70;84.70;;;;;;5036120;27;89792;-46
2023/10/29 01:41:33;;;;;;;;;;;17.70;84.70;;;;;;5041211;27;90839;-47
2023/10/29 01:43:59;;;;;;;;;;;17.70;84.60;;;;;;5041001;27;89312;-46
2023/10/29 01:46:25;;;;;;;;;;;17.70;84.60;;;;;;5037850;27;89203;-46
2023/10/29 01:48:50;;;;;;;;;;;17.70;84.60;;;;;;5035720;27;92579;-46
2023/10/29 01:51:16;;;;;;;;;;;17.70;84.50;;;;;;5037745;27;90235;-46
2023/10/29 01:53:41;;;;;;;;;;;17.70;84.50;;;;;;5035701;27;91168;-45
2023/10/29 01:56:07;;;;;;;;;;;17.70;84.40;;;;;;5039612;27;89460;-46
2023/10/29 01:58:33;;;;;;;;;;;17.70;84.40;;;;;;5033308;27;89356;-45
2023/10/29 02:00:58;;;;;;;;;;;17.70;84.80;;;;;;5036193;27;89546;-46
2023/10/29 02:03:24;;;;;;;;;;;17.70;84.30;;;;;;5041180;27;90430;-46
2023/10/29 02:05:50;;;;;;;;;;;17.70;84.40;;;;;;5038096;27;89669;-46
2023/10/29 02:08:17;;;;;;;;;;;17.70;84.30;;;;;;5039533;27;89703;-46
2023/10/29 02:10:42;;;;;;;;;;;17.70;84.30;;;;;;5038012;27;89083;-46
2023/10/29 02:13:08;;;;;;;;;;;17.70;84.40;;;;;;5041316;27;89229;-46
2023/10/29 02:15:33;;;;;;;;;;;17.60;84.40;;;;;;5041129;27;89731;-45
2023/10/29 02:17:59;;;;;;;;;;;17.60;84.30;;;;;;5034982;27;91294;-47
2023/10/29 02:20:24;;;;;;;;;;;17.60;84.30;;;;;;5039948;27;89877;-45
2023/10/29 02:22:50;;;;;;;;;;;17.60;84.30;;;;;;5042509;27;89646;-46
2023/10/29 02:25:15;;;;;;;;;;;17.60;84.20;;;;;;5036674;27;90676;-46
2023/10/29 02:27:41;;;;;;;;;;;17.60;84.30;;;;;;5035623;27;91629;-46
2023/10/29 02:30:07;;;;;;;;;;;17.60;84.20;;;;;;5040451;27;89185;-46
2023/10/29 02:32:32;;;;;;;;;;;17.60;84.20;;;;;;5038145;27;89404;-46
2023/10/29 02:34:58;;;;;;;;;;;17.60;84.20;;;;;;5037407;27;88815;-46
2023/10/29 02:37:23;;;;;;;;;;;17.60;84.20;;;;;;5037358;27;90016;-46
2023/10/29 02:39:49;;;;;;;;;;;17.60;84.10;;;;;;5034258;27;91793;-46
2023/10/29 02:42:16;;;;;;;;;;;17.60;84.20;;;;;;5038655;27;90991;-46
2023/10/29 02:44:42;;;;;;;;;;;17.60;84.00;;;;;;5039900;27;88989;-46
2023/10/29 02:47:08;;;;;;;;;;;17.60;84.10;;;;;;5047327;27;89830;-46
2023/10/29 02:49:33;;;;;;;;;;;17.70;84.10;;;;;;5038080;27;89519;-47
2023/10/29 02:51:59;;;;;;;;;;;17.60;84.10;;;;;;5042683;27;90633;-46
2023/10/29 02:54:24;;;;;;;;;;;17.60;84.00;;;;;;5041020;27;90337;-46
2023/10/29 02:56:50;;;;;;;;;;;17.60;84.00;;;;;;5044199;27;89828;-45
2023/10/29 02:59:15;;;;;;;;;;;17.60;83.80;;;;;;5037160;27;89080;-46
2023/10/29 03:01:41;;;;;;;;;;;17.60;83.80;;;;;;5041630;27;89480;-46
2023/10/29 03:04:06;;;;;;;;;;;17.60;83.80;;;;;;5041902;27;89697;-46
2023/10/29 03:06:32;;;;;;;;;;;17.60;83.80;;;;;;5041921;27;89673;-46
2023/10/29 03:08:58;;;;;;;;;;;17.60;83.70;;;;;;5045223;27;89898;-45
2023/10/29 03:11:23;;;;;;;;;;;17.60;83.70;;;;;;5037415;27;89898;-45
2023/10/29 03:13:48;;;;;;;;;;;17.60;83.70;;;;;;5042578;27;89539;-44
2023/10/29 03:16:15;;;;;;;;;;;17.60;83.80;;;;;;5034889;27;90462;-45
2023/10/29 03:18:40;;;;;;;;;;;17.60;83.70;;;;;;5038953;27;89203;-45
2023/10/29 03:21:05;;;;;;;;;;;17.60;83.60;;;;;;5037341;27;90665;-45
2023/10/29 03:23:31;;;;;;;;;;;17.60;83.70;;;;;;5037195;27;88081;-45
2023/10/29 03:26:01;;;;;;;;;;;17.60;83.70;;;;;;5040283;27;89105;-45
2023/10/29 03:28:26;;;;;;;;;;;17.60;83.60;;;;;;5037720;27;90060;-45
2023/10/29 03:30:52;;;;;;;;;;;17.50;83.50;;;;;;5042276;27;90902;-45
2023/10/29 03:33:18;;;;;;;;;;;17.50;83.60;;;;;;5042519;27;89762;-44
2023/10/29 03:35:43;;;;;;;;;;;17.60;83.60;;;;;;5035281;27;89529;-45
2023/10/29 03:38:09;;;;;;;;;;;17.50;83.60;;;;;;5025102;27;90964;-44
2023/10/29 03:40:35;;;;;;;;;;;17.50;83.60;;;;;;5043685;27;90358;-46
2023/10/29 03:43:00;;;;;;;;;;;17.50;83.60;;;;;;5038150;27;91253;-46
2023/10/29 03:45:26;;;;;;;;;;;17.50;83.60;;;;;;5035349;27;89741;-46
2023/10/29 03:47:51;;;;;;;;;;;17.50;83.60;;;;;;5039947;27;90434;-45
2023/10/29 03:50:17;;;;;;;;;;;17.50;83.60;;;;;;5040431;27;91483;-46
2023/10/29 03:52:42;;;;;;;;;;;17.50;83.60;;;;;;5042162;27;92171;-45
2023/10/29 03:55:08;;;;;;;;;;;17.50;83.70;;;;;;5041088;27;90414;-45
2023/10/29 03:57:33;;;;;;;;;;;17.50;83.70;;;;;;5039784;27;89407;-46
2023/10/29 03:59:59;;;;;;;;;;;17.50;83.70;;;;;;5042630;27;89624;-45
2023/10/29 04:02:24;;;;;;;;;;;17.50;83.70;;;;;;5041504;27;91295;-46
2023/10/29 04:04:50;;;;;;;;;;;17.50;83.70;;;;;;5041563;27;90629;-46
2023/10/29 04:07:15;;;;;;;;;;;17.50;83.80;;;;;;5038744;27;89912;-46
2023/10/29 04:09:41;;;;;;;;;;;17.50;83.80;;;;;;5039963;27;90407;-46
2023/10/29 04:12:07;;;;;;;;;;;17.50;83.90;;;;;;5040366;27;88779;-46
2023/10/29 04:14:32;;;;;;;;;;;17.50;83.80;;;;;;5038038;27;89534;-46
2023/10/29 04:16:58;;;;;;;;;;;17.50;83.70;;;;;;5036816;27;89778;-45
2023/10/29 04:19:23;;;;;;;;;;;17.40;83.80;;;;;;5039067;27;89815;-45
2023/10/29 04:21:49;;;;;;;;;;;17.40;83.70;;;;;;5032448;27;90148;-45
2023/10/29 04:24:15;;;;;;;;;;;17.40;83.80;;;;;;5039376;27;89776;-44
2023/10/29 04:26:40;;;;;;;;;;;17.40;83.70;;;;;;5036086;27;89829;-45
2023/10/29 04:29:06;;;;;;;;;;;17.40;83.80;;;;;;5041689;27;89449;-45
2023/10/29 04:31:31;;;;;;;;;;;17.40;83.70;;;;;;5038727;27;93562;-45
2023/10/29 04:33:57;;;;;;;;;;;17.40;83.70;;;;;;5043641;27;89542;-45
2023/10/29 04:36:23;;;;;;;;;;;17.40;83.80;;;;;;5038594;27;89612;-45
2023/10/29 04:38:48;;;;;;;;;;;17.40;83.80;;;;;;5036377;27;89478;-44
2023/10/29 04:41:14;;;;;;;;;;;17.40;83.70;;;;;;5039889;27;89299;-46
2023/10/29 04:43:41;;;;;;;;;;;17.40;83.70;;;;;;5036788;27;90961;-45
2023/10/29 04:46:10;;;;;;;;;;;17.40;83.80;;;;;;5044246;27;89671;-45
2023/10/29 04:48:35;;;;;;;;;;;17.40;83.70;;;;;;5035695;27;88912;-45
2023/10/29 04:51:01;;;;;;;;;;;17.40;83.70;;;;;;5035625;27;89234;-46
2023/10/29 04:53:27;;;;;;;;;;;17.40;83.70;;;;;;5037637;27;89930;-45
2023/10/29 04:55:53;;;;;;;;;;;17.30;83.70;;;;;;5039165;27;90164;-44
2023/10/29 04:58:18;;;;;;;;;;;17.40;83.70;;;;;;5041969;27;90057;-44
2023/10/29 05:00:44;;;;;;;;;;;17.40;83.70;;;;;;5036193;27;88970;-45
2023/10/29 05:03:09;;;;;;;;;;;17.40;83.80;;;;;;5034739;27;90353;-45
2023/10/29 05:05:35;;;;;;;;;;;17.30;83.90;;;;;;5040451;27;89662;-44
2023/10/29 05:08:01;;;;;;;;;;;17.30;83.90;;;;;;5036929;27;90538;-45
2023/10/29 05:10:28;;;;;;;;;;;17.40;83.90;;;;;;5037833;27;93640;-45
2023/10/29 05:12:54;;;;;;;;;;;17.40;83.80;;;;;;5045005;27;89730;-45
2023/10/29 05:15:19;;;;;;;;;;;17.30;83.80;;;;;;5044476;27;89514;-45
2023/10/29 05:17:44;;;;;;;;;;;17.30;83.80;;;;;;5038370;27;89609;-45
2023/10/29 05:20:10;;;;;;;;;;;17.30;83.90;;;;;;5040965;27;89805;-45
2023/10/29 05:22:36;;;;;;;;;;;17.30;83.80;;;;;;5034915;27;89772;-45
2023/10/29 05:25:02;;;;;;;;;;;17.30;83.80;;;;;;5034138;27;88779;-46
2023/10/29 05:27:28;;;;;;;;;;;17.30;83.70;;;;;;5042352;27;89905;-45
2023/10/29 05:29:53;;;;;;;;;;;17.30;83.80;;;;;;5042914;27;89589;-44
2023/10/29 05:32:19;;;;;;;;;;;17.30;83.80;;;;;;5039794;27;90568;-45
2023/10/29 05:34:45;;;;;;;;;;;17.30;83.70;;;;;;5039883;27;91082;-46
2023/10/29 05:37:11;;;;;;;;;;;17.30;83.70;;;;;;5040750;27;89492;-44
2023/10/29 05:39:36;;;;;;;;;;;17.30;83.70;;;;;;5039618;27;90251;-44
2023/10/29 05:42:02;;;;;;;;;;;17.30;83.70;;;;;;5038992;27;89391;-45
2023/10/29 05:44:28;;;;;;;;;;;17.30;83.70;;;;;;5039145;27;90272;-45
2023/10/29 05:46:53;;;;;;;;;;;17.30;83.70;;;;;;5037207;27;89490;-45
2023/10/29 05:49:19;;;;;;;;;;;17.30;83.50;;;;;;5041806;27;89672;-45
2023/10/29 05:51:44;;;;;;;;;;;17.30;83.50;;;;;;5039448;27;90101;-45
2023/10/29 05:54:10;;;;;;;;;;;17.30;83.50;;;;;;5041824;27;89834;-44
2023/10/29 05:56:35;;;;;;;;;;;17.30;83.70;;;;;;5037064;27;91263;-45
2023/10/29 05:59:01;;;;;;;;;;;17.30;83.80;;;;;;5041895;27;89414;-44
2023/10/29 06:01:26;;;;;;;;;;;17.30;83.90;;;;;;5043399;27;89525;-45
2023/10/29 06:03:52;;;;;;;;;;;17.30;83.90;;;;;;5036864;27;90004;-45
2023/10/29 06:06:17;;;;;;;;;;;17.30;83.90;;;;;;5042077;27;89492;-45
2023/10/29 06:08:43;;;;;;;;;;;17.30;83.90;;;;;;5035868;27;89528;-45
2023/10/29 06:11:08;;;;;;;;;;;17.30;83.80;;;;;;5036090;27;89241;-45
2023/10/29 06:13:34;;;;;;;;;;;17.30;83.80;;;;;;5039556;27;88446;-45
2023/10/29 06:15:59;;;;;;;;;;;17.30;84.00;;;;;;5036350;27;89473;-44
2023/10/29 06:18:25;;;;;;;;;;;17.30;83.90;;;;;;5025344;27;89796;-45
2023/10/29 06:20:54;;;;;;;;;;;17.30;83.80;;;;;;5034438;27;91146;-45
2023/10/29 06:23:19;;;;;;;;;;;17.30;83.90;;;;;;5040180;27;89653;-46
2023/10/29 06:25:45;;;;;;;;;;;17.20;83.80;;;;;;5035095;27;90838;-44
2023/10/29 06:28:11;;;;;;;;;;;17.30;84.00;;;;;;5034222;27;93010;-45
2023/10/29 06:30:36;;;;;;;;;;;17.20;83.80;;;;;;5026930;27;90644;-46
2023/10/29 06:33:02;;;;;;;;;;;17.30;83.80;;;;;;5029988;27;91537;-45
2023/10/29 06:35:28;;;;;;;;;;;17.30;83.60;;;;;;5033119;27;89785;-45
2023/10/29 06:37:53;;;;;;;;;;;17.20;83.70;;;;;;5036054;27;88496;-45
2023/10/29 06:40:19;;;;;;;;;;;17.20;83.70;;;;;;5020930;27;90084;-45
2023/10/29 06:42:45;;;;;;;;;;;17.20;83.70;;;;;;5039694;27;89975;-45
2023/10/29 06:45:10;;;;;;;;;;;17.20;83.60;;;;;;5040079;27;91039;-44
2023/10/29 06:47:36;;;;;;;;;;;17.20;83.40;;;;;;5037689;27;89083;-46
2023/10/29 06:50:02;;;;;;;;;;;17.20;83.50;;;;;;5044050;27;89203;-44
2023/10/29 06:52:27;;;;;;;;;;;17.20;83.50;;;;;;5037665;27;89534;-45
2023/10/29 06:54:53;;;;;;;;;;;17.20;83.50;;;;;;5033940;27;89406;-45
2023/10/29 06:57:19;;;;;;;;;;;17.20;83.50;;;;;;5042272;27;90149;-45
2023/10/29 06:59:44;;;;;;;;;;;17.20;83.50;;;;;;5038596;27;91886;-45
2023/10/29 07:02:10;;;;;;;;;;;17.20;83.50;;;;;;5042515;27;89599;-45
2023/10/29 07:04:35;;;;;;;;;;;17.20;83.50;;;;;;5038039;27;90060;-45
2023/10/29 07:07:01;;;;;;;;;;;17.20;83.40;;;;;;5040839;27;91095;-45
2023/10/29 07:09:26;;;;;;;;;;;17.20;83.40;;;;;;5037066;27;95402;-45
2023/10/29 07:11:52;;;;;;;;;;;17.20;83.30;;;;;;5040067;27;90211;-45
2023/10/29 07:14:18;;;;;;;;;;;17.30;83.20;;;;;;5044404;27;89604;-44
2023/10/29 07:16:46;;;;;;;;;;;17.30;83.10;;;;;;5038774;27;91236;-45
2023/10/29 07:19:12;;;;;;;;;;;17.30;83.00;;;;;;5040960;27;89606;-46
2023/10/29 07:21:38;;;;;;;;;;;17.30;82.90;;;;;;5019120;27;91770;-45
2023/10/29 07:24:05;;;;;;;;;;;17.30;82.90;;;;;;5039869;27;89142;-45
2023/10/29 07:26:31;;;;;;;;;;;17.30;82.90;;;;;;5040692;27;88818;-45
2023/10/29 07:28:57;;;;;;;;;;;17.30;83.10;;;;;;5037122;27;89998;-45
2023/10/29 07:31:22;;;;;;;;;;;17.30;82.90;;;;;;5039877;27;88923;-46
2023/10/29 07:33:48;;;;;;;;;;;17.30;82.80;;;;;;5037550;27;90370;-44
2023/10/29 07:36:13;;;;;;;;;;;17.30;82.70;;;;;;5040221;27;89963;-45
2023/10/29 07:38:38;;;;;;;;;;;17.30;82.60;;;;;;5035107;27;92404;-45
2023/10/29 07:41:04;;;;;;;;;;;17.30;82.50;;;;;;5039512;27;90277;-45
2023/10/29 07:43:29;;;;;;;;;;;17.30;82.50;;;;;;5035835;27;89588;-45
2023/10/29 07:46:02;;;;;;;;;;;17.30;82.50;;;;;;5032273;27;91300;-45
2023/10/29 07:48:27;;;;;;;;;;;17.30;82.50;;;;;;5037078;27;90227;-45
2023/10/29 07:50:53;;;;;;;;;;;17.40;82.50;;;;;;5039706;27;89432;-44
2023/10/29 07:53:19;;;;;;;;;;;17.30;82.40;;;;;;5041953;27;89542;-45
2023/10/29 07:55:44;;;;;;;;;;;17.40;82.30;;;;;;5044312;27;90720;-45
2023/10/29 07:58:10;;;;;;;;;;;17.40;82.20;;;;;;5039792;27;90389;-44
2023/10/29 08:00:36;;;;;;;;;;;17.40;82.20;;;;;;5038581;27;89154;-44
2023/10/29 08:03:01;;;;;;;;;;;17.40;82.00;;;;;;5042115;27;90018;-45
2023/10/29 08:05:27;;;;;;;;;;;17.40;82.00;;;;;;5042668;27;89183;-45
2023/10/29 08:07:52;;;;;;;;;;;17.40;82.10;;;;;;5046290;27;89999;-45
2023/10/29 08:10:18;;;;;;;;;;;17.40;82.00;;;;;;5037687;27;90070;-45
2023/10/29 08:12:44;;;;;;;;;;;17.40;82.00;;;;;;5043114;27;89958;-45
2023/10/29 08:15:10;;;;;;;;;;;17.40;81.90;;;;;;5039900;27;89914;-44
2023/10/29 08:17:35;;;;;;;;;;;17.40;81.90;;;;;;5038453;27;89052;-45
2023/10/29 08:20:01;;;;;;;;;;;17.40;81.80;;;;;;5035191;27;89774;-46
2023/10/29 08:22:26;;;;;;;;;;;17.40;81.90;;;;;;5043362;27;95844;-45
2023/10/29 08:24:52;;;;;;;;;;;17.40;82.00;;;;;;5043779;27;88702;-44
2023/10/29 08:27:17;;;;;;;;;;;17.40;82.10;;;;;;5043847;27;92400;-44
2023/10/29 08:29:45;;;;;;;;;;;17.40;82.10;;;;;;5039719;27;89803;-46
2023/10/29 08:32:10;;;;;;;;;;;17.40;81.90;;;;;;5046178;27;89190;-45
2023/10/29 08:34:36;;;;;;;;;;;17.40;81.90;;;;;;5044556;27;89365;-45
2023/10/29 08:37:01;;;;;;;;;;;17.40;81.90;;;;;;5036801;27;90419;-44
2023/10/29 08:39:27;;;;;;;;;;;17.40;81.80;;;;;;5042457;27;89660;-45
2023/10/29 08:41:53;;;;;;;;;;;17.40;81.80;;;;;;5038291;27;89502;-46
2023/10/29 08:44:19;;;;;;;;;;;17.40;81.90;;;;;;5036603;27;90020;-45
2023/10/29 08:46:46;;;;;;;;;;;17.40;82.00;;;;;;5038749;27;90533;-45
2023/10/29 08:49:11;;;;;;;;;;;17.40;82.10;;;;;;5038171;27;90474;-45
2023/10/29 08:51:37;;;;;;;;;;;17.40;81.90;;;;;;5042208;27;89387;-45
2023/10/29 08:54:03;;;;;;;;;;;17.40;81.80;;;;;;5042815;27;89570;-45
2023/10/29 08:56:32;;;;;;;;;;;17.50;81.70;;;;;;5041188;27;90283;-45
2023/10/29 08:58:57;;;;;;;;;;;17.50;81.60;;;;;;5043093;27;89787;-45
2023/10/29 09:01:23;;;;;;;;;;;17.50;81.50;;;;;;5041022;27;89778;-45
2023/10/29 09:03:48;;;;;;;;;;;17.50;81.50;;;;;;5045752;27;88020;-44
2023/10/29 09:06:14;;;;;;;;;;;17.50;81.60;;;;;;5040679;27;89553;-46
2023/10/29 09:08:40;;;;;;;;;;;17.40;81.40;;;;;;5045577;27;89462;-45
2023/10/29 09:11:05;;;;;;;;;;;17.40;81.30;;;;;;5038377;27;91030;-45
2023/10/29 09:13:32;;;;;;;;;;;17.40;81.30;;;;;;5046395;27;90188;-45
2023/10/29 09:15:59;;;;;;;;;;;17.50;81.60;;;;;;5041355;27;89487;-45
2023/10/29 09:18:25;;;;;;;;;;;17.50;81.50;;;;;;5036609;27;90229;-44
2023/10/29 09:20:50;;;;;;;;;;;17.40;81.30;;;;;;5038108;27;89449;-45
2023/10/29 09:23:16;;;;;;;;;;;17.50;81.30;;;;;;5031494;27;89493;-45
2023/10/29 09:25:45;;;;;;;;;;;17.50;81.30;;;;;;5041509;27;90067;-44
2023/10/29 09:28:12;;;;;;;;;;;17.50;81.40;;;;;;5037326;27;88312;-44
2023/10/29 09:30:40;;;;;;;;;;;17.50;81.30;;;;;;5037160;27;89524;-45
2023/10/29 09:33:07;;;;;;;;;;;17.50;81.20;;;;;;5037927;27;89890;-45
2023/10/29 09:35:34;;;;;;;;;;;17.50;81.20;;;;;;5036599;27;92214;-45
2023/10/29 09:38:02;;;;;;;;;;;17.50;81.30;;;;;;5038732;27;89536;-45
2023/10/29 09:40:27;;;;;;;;;;;17.40;81.20;;;;;;5034190;27;90429;-44
2023/10/29 09:42:54;;;;;;;;;;;17.40;81.30;;;;;;5037762;27;89800;-46
2023/10/29 09:45:24;;;;;;;;;;;17.40;81.30;;;;;;5034782;27;89993;-46
2023/10/29 09:47:50;;;;;;;;;;;17.50;81.60;;;;;;5037686;27;90113;-45
2023/10/29 09:50:15;;;;;;;;;;;17.60;81.70;;;;;;5033675;27;89941;-46
2023/10/29 09:52:41;;;;;;;;;;;17.60;81.60;;;;;;5032336;27;88840;-45
2023/10/29 09:55:08;;;;;;;;;;;17.60;81.80;;;;;;5032961;27;89398;-46
2023/10/29 09:57:34;;;;;;;;;;;17.60;81.80;;;;;;5035367;27;89368;-46
2023/10/29 10:00:00;;;;;;;;;;;17.60;82.30;;;;;;5034774;27;90251;-46
2023/10/29 10:02:26;;;;;;;;;;;17.60;82.30;;;;;;5035520;27;89173;-46
2023/10/29 10:04:52;;;;;;;;;;;17.60;82.30;;;;;;5040016;27;89954;-45
2023/10/29 10:07:17;;;;;;;;;;;17.60;82.60;;;;;;5033382;27;89640;-46
2023/10/29 10:09:55;;;;;;;;;;;17.60;82.70;;;;;;5034014;27;89568;-45
2023/10/29 10:12:21;;;;;;;;;;;17.60;82.60;;;;;;5039490;27;89190;-46
2023/10/29 10:14:47;;;;;;;;;;;17.60;82.70;;;;;;5016738;27;89520;-45
2023/10/29 10:17:13;;;;;;;;;;;17.60;82.50;;;;;;5036624;27;88706;-45
2023/10/29 10:19:39;;;;;;;;;;;17.70;82.60;;;;;;5036225;27;89621;-46
2023/10/29 10:22:05;;;;;;;;;;;17.70;82.50;;;;;;5035571;27;89729;-46
2023/10/29 10:24:43;;;;;;;;;;;17.60;82.40;;;;;;5032030;27;92265;-45
2023/10/29 10:27:09;;;;;;;;;;;17.70;82.50;;;;;;5041623;27;89559;-45
2023/10/29 10:29:34;;;;;;;;;;;17.70;82.20;;;;;;5035968;27;89456;-46
2023/10/29 10:32:04;;;;;;;;;;;17.60;82.50;;;;;;5043964;27;90452;-46
2023/10/29 10:34:31;;;;;;;;;;;17.70;82.50;;;;;;5044700;27;89522;-46
2023/10/29 10:36:59;;;;;;;;;;;17.70;82.20;;;;;;5039097;27;90158;-46
2023/10/29 10:39:27;;;;;;;;;;;17.70;82.00;;;;;;5033589;27;89711;-46
2023/10/29 10:41:53;;;;;;;;;;;17.70;81.90;;;;;;5036366;27;89349;-46
2023/10/29 10:44:19;;;;;;;;;;;17.80;81.90;;;;;;5039368;27;89589;-47
2023/10/29 10:46:50;;;;;;;;;;;17.80;81.90;;;;;;5039124;27;89397;-45
2023/10/29 10:49:16;;;;;;;;;;;17.80;81.80;;;;;;5040324;27;90279;-45
2023/10/29 10:51:42;;;;;;;;;;;17.80;81.80;;;;;;5034047;27;89314;-45
2023/10/29 10:54:08;;;;;;;;;;;17.80;81.90;;;;;;5029798;27;90749;-45
2023/10/29 10:56:38;;;;;;;;;;;17.80;81.90;;;;;;5027596;27;89999;-45
2023/10/29 10:59:04;;;;;;;;;;;17.80;81.90;;;;;;5038081;27;89506;-45
2023/10/29 11:01:31;;;;;;;;;;;17.80;82.20;;;;;;5035857;27;90199;-45
2023/10/29 11:03:57;;;;;;;;;;;17.80;82.70;;;;;;5025073;27;89191;-43
2023/10/29 11:06:23;;;;;;;;;;;17.80;82.70;;;;;;5039603;27;89886;-45
2023/10/29 11:08:49;;;;;;;;;;;17.80;83.00;;;;;;5048864;27;89376;-45
2023/10/29 11:11:15;;;;;;;;;;;17.80;82.80;;;;;;5042949;27;95512;-46
2023/10/29 11:13:41;;;;;;;;;;;17.80;82.90;;;;;;5041467;27;94400;-45
2023/10/29 11:16:20;;;;;;;;;;;17.80;82.80;;;;;;5047079;27;89489;-46
2023/10/29 11:18:46;;;;;;;;;;;17.80;82.60;;;;;;5045198;27;89498;-46
2023/10/29 11:21:28;;;;;;;;;;;17.80;82.70;;;;;;5043908;27;91278;-46
2023/10/29 11:24:14;;;;;;;;;;;17.80;82.70;;;;;;5043496;27;89288;-46
2023/10/29 11:26:39;;;;;;;;;;;17.80;82.60;;;;;;5045398;27;88659;-46
2023/10/29 11:29:05;;;;;;;;;;;17.80;82.40;;;;;;5043034;27;89210;-46
2023/10/29 11:31:30;;;;;;;;;;;17.70;82.40;;;;;;5045311;27;89231;-46
2023/10/29 11:33:56;;;;;;;;;;;17.80;82.40;;;;;;5041188;27;89225;-46
2023/10/29 11:36:38;;;;;;;;;;;17.80;82.30;;;;;;5043410;27;89130;-46
2023/10/29 11:39:12;;;;;;;;;;;17.80;82.20;;;;;;5041826;27;93644;-46
2023/10/29 11:41:39;;;;;;;;;;;17.80;82.10;;;;;;5043453;27;89341;-46
2023/10/29 11:44:24;;;;;;;;;;;17.80;82.10;;;;;;5044724;27;89868;-46
2023/10/29 11:46:56;;;;;;;;;;;17.80;82.10;;;;;;5048624;27;89620;-45
2023/10/29 11:49:22;;;;;;;;;;;17.80;82.00;;;;;;5043177;27;90444;-46
2023/10/29 11:51:59;;;;;;;;;;;17.70;81.90;;;;;;5053244;27;89222;-46
2023/10/29 11:54:25;;;;;;;;;;;17.80;81.90;;;;;;5039579;27;89593;-46
2023/10/29 11:56:51;;;;;;;;;;;17.80;81.90;;;;;;5044892;27;89256;-46
2023/10/29 11:59:17;;;;;;;;;;;17.80;81.80;;;;;;5047108;27;90243;-46
2023/10/29 12:01:42;;;;;;;;;;;17.70;81.90;;;;;;5046983;27;88818;-46
2023/10/29 12:04:09;;;;;;;;;;;17.70;81.90;;;;;;5041217;27;90185;-46
2023/10/29 12:06:42;;;;;;;;;;;17.70;81.90;;;;;;5045121;27;89457;-46
2023/10/29 12:09:21;;;;;;;;;;;17.70;81.80;;;;;;5043192;27;89542;-46
2023/10/29 12:11:49;;;;;;;;;;;17.70;81.90;;;;;;5040468;27;89258;-46
2023/10/29 12:14:14;;;;;;;;;;;17.70;81.80;;;;;;5043239;27;89077;-46
2023/10/29 12:16:40;;;;;;;;;;;17.70;81.80;;;;;;5043266;27;90312;-46
2023/10/29 12:19:06;;;;;;;;;;;17.80;81.70;;;;;;5039083;27;91061;-46
2023/10/29 12:21:32;;;;;;;;;;;17.80;81.50;;;;;;5042221;27;89289;-45
2023/10/29 12:23:58;;;;;;;;;;;17.80;81.60;;;;;;5040772;27;89494;-46
2023/10/29 12:26:25;;;;;;;;;;;17.80;81.50;;;;;;5047212;27;89313;-46
2023/10/29 12:28:51;;;;;;;;;;;17.80;81.50;;;;;;5040677;27;90792;-45
2023/10/29 12:31:26;;;;;;;;;;;17.80;81.30;;;;;;5038201;27;88831;-45
2023/10/29 12:33:55;;;;;;;;;;;17.80;81.20;;;;;;5042054;27;89467;-46
2023/10/29 12:36:23;;;;;;;;;;;17.90;81.20;;;;;;5040566;27;89507;-45
2023/10/29 12:38:48;;;;;;;;;;;17.90;81.20;;;;;;5041184;27;89885;-45
2023/10/29 12:41:14;;;;;;;;;;;17.80;81.60;;;;;;5047065;27;91435;-45
2023/10/29 12:43:47;;;;;;;;;;;17.90;81.10;;;;;;5044794;27;89602;-45
2023/10/29 12:46:13;;;;;;;;;;;17.90;81.10;;;;;;5045435;27;88795;-45
2023/10/29 12:49:14;;;;;;;;;;;17.90;81.20;;;;;;5041732;27;89491;-45
2023/10/29 12:51:43;;;;;;;;;;;17.90;81.30;;;;;;4980024;28;89623;-45
2023/10/29 12:54:13;;;;;;;;;;;17.90;81.20;;;;;;5026269;27;90421;-45
2023/10/29 12:56:52;;;;;;;;;;;17.90;81.30;;;;;;5040134;27;90365;-45
2023/10/29 12:59:18;;;;;;;;;;;17.90;81.40;;;;;;5041629;27;89466;-44
2023/10/29 13:01:50;;;;;;;;;;;17.90;81.40;;;;;;5047234;27;90116;-45
2023/10/29 13:04:16;;;;;;;;;;;17.90;81.30;;;;;;5044212;27;89649;-45
2023/10/29 13:06:42;;;;;;;;;;;17.90;81.30;;;;;;5046661;27;89829;-45
2023/10/29 13:09:09;;;;;;;;;;;17.90;81.30;;;;;;5040538;27;90281;-44
2023/10/29 13:11:35;;;;;;;;;;;18.00;81.30;;;;;;5046290;27;89079;-44
2023/10/29 13:14:00;;;;;;;;;;;17.90;81.30;;;;;;5041320;27;89421;-45
2023/10/29 13:16:26;;;;;;;;;;;18.00;81.30;;;;;;5042631;27;90796;-45
2023/10/29 13:18:51;;;;;;;;;;;18.00;81.30;;;;;;5044687;27;90740;-45
2023/10/29 13:21:18;;;;;;;;;;;17.90;81.20;;;;;;5042255;27;89921;-45
2023/10/29 13:23:43;;;;;;;;;;;17.90;81.20;;;;;;5047003;27;89887;-45
2023/10/29 13:26:09;;;;;;;;;;;17.90;81.20;;;;;;5042992;27;89369;-44
2023/10/29 13:28:34;;;;;;;;;;;18.00;81.20;;;;;;5037646;27;89910;-45
2023/10/29 13:31:00;;;;;;;;;;;18.00;81.10;;;;;;5037422;27;89166;-44
2023/10/29 13:33:25;;;;;;;;;;;18.00;81.20;;;;;;5041419;27;89412;-45
2023/10/29 13:35:51;;;;;;;;;;;18.00;81.00;;;;;;5044487;27;88614;-45
2023/10/29 13:38:17;;;;;;;;;;;18.10;80.90;;;;;;5039498;27;89464;-44
2023/10/29 13:40:44;;;;;;;;;;;18.10;80.70;;;;;;5051937;27;89847;-45
2023/10/29 13:43:09;;;;;;;;;;;18.10;80.40;;;;;;5039807;27;91747;-45
2023/10/29 13:45:35;;;;;;;;;;;18.10;80.40;;;;;;5043970;27;90038;-44
2023/10/29 13:48:00;;;;;;;;;;;18.20;80.40;;;;;;5043469;27;89440;-44
2023/10/29 13:50:26;;;;;;;;;;;18.20;80.30;;;;;;5039922;27;89459;-45
2023/10/29 13:52:51;;;;;;;;;;;18.20;80.10;;;;;;5026241;27;90809;-44
2023/10/29 13:55:20;;;;;;;;;;;18.20;80.10;;;;;;5044429;27;89821;-45
2023/10/29 13:57:45;;;;;;;;;;;18.20;80.00;;;;;;5041283;27;89581;-45
2023/10/29 14:00:12;;;;;;;;;;;18.20;80.00;;;;;;5045073;27;88686;-44
2023/10/29 14:02:38;;;;;;;;;;;18.30;79.90;;;;;;5039904;27;90322;-44
2023/10/29 14:05:03;;;;;;;;;;;18.30;79.90;;;;;;5042035;27;89662;-45
2023/10/29 14:07:30;;;;;;;;;;;18.30;79.80;;;;;;5040562;27;90312;-45
2023/10/29 14:09:56;;;;;;;;;;;18.30;79.70;;;;;;5040074;27;89558;-45
2023/10/29 14:12:22;;;;;;;;;;;18.30;79.60;;;;;;5046507;27;90010;-44